Time;durP1;ratioP1;P1;durP2;ratioP2;P2;SDS_P1;SDS_P2;PMS_P1;PMS_P2;Temp;Humidity;BMP_temperature;BMP_pressure;BME280_temperature;BME280_humidity;BME280_pressure;Samples;Min_cycle;Max_cycle;Signal;HPM_P1;HPM_P2
2023/05/30 00:00:45;;;;;;;7.45;1.98;;;;;;;19.78;31.71;101891.56;5029659;27;99036;-63
2023/05/30 00:03:11;;;;;;;5.82;2.10;;;;;;;19.63;31.85;101890.59;5033728;27;96954;-63
2023/05/30 00:05:37;;;;;;;9.35;2.25;;;;;;;19.58;32.32;101890.00;5039111;27;97109;-63
2023/05/30 00:08:04;;;;;;;5.70;1.85;;;;;;;19.56;32.28;101894.56;5032648;27;99474;-61
2023/05/30 00:10:30;;;;;;;4.90;1.85;;;;;;;19.59;32.01;101898.91;5033057;27;98473;-62
2023/05/30 00:12:57;;;;;;;5.47;1.98;;;;;;;19.71;32.04;101900.91;5036620;27;97347;-62
2023/05/30 00:15:25;;;;;;;5.70;1.85;;;;;;;19.58;32.09;101898.03;5035794;27;97260;-61
2023/05/30 00:17:52;;;;;;;7.93;2.20;;;;;;;19.48;32.51;101896.81;5035510;27;98760;-61
2023/05/30 00:20:22;;;;;;;5.57;2.17;;;;;;;19.44;34.80;101896.06;5039447;27;97958;-62
2023/05/30 00:22:48;;;;;;;5.70;1.90;;;;;;;19.34;35.86;101894.84;5033046;27;97265;-62
2023/05/30 00:25:16;;;;;;;5.43;2.42;;;;;;;19.34;35.91;101894.84;5029726;27;96876;-62
2023/05/30 00:27:42;;;;;;;7.97;2.15;;;;;;;19.28;35.98;101908.59;5036616;27;98516;-62
2023/05/30 00:30:09;;;;;;;8.73;2.20;;;;;;;19.14;36.73;101905.78;5030788;27;100327;-64
2023/05/30 00:32:37;;;;;;;4.90;2.10;;;;;;;19.05;37.06;101907.09;5029819;27;96968;-63
2023/05/30 00:35:05;;;;;;;4.35;1.63;;;;;;;18.86;37.08;101897.44;5033597;27;98088;-62
2023/05/30 00:37:31;;;;;;;6.72;1.88;;;;;;;18.74;37.49;101903.44;5037878;27;101753;-62
2023/05/30 00:39:57;;;;;;;5.22;1.70;;;;;;;18.68;37.77;101893.91;5035903;27;98776;-62
2023/05/30 00:42:24;;;;;;;8.48;2.53;;;;;;;18.55;38.14;101890.09;5036788;27;96958;-61
2023/05/30 00:44:50;;;;;;;5.45;2.05;;;;;;;18.45;38.07;101899.50;5036004;27;98644;-61
2023/05/30 00:47:17;;;;;;;6.43;2.03;;;;;;;18.43;37.99;101907.63;5026949;27;99347;-62
2023/05/30 00:49:45;;;;;;;8.90;1.92;;;;;;;18.39;37.85;101907.84;5037473;27;99533;-66
2023/05/30 00:52:13;;;;;;;9.13;2.00;;;;;;;18.40;38.18;101907.78;5035868;27;96854;-64
2023/05/30 00:54:42;;;;;;;11.40;2.15;;;;;;;18.33;38.73;101903.66;5040650;27;97891;-62
2023/05/30 00:57:09;;;;;;;6.38;2.22;;;;;;;18.37;38.56;101899.91;5037036;27;98954;-61
2023/05/30 00:59:35;;;;;;;5.25;2.08;;;;;;;18.19;38.95;101900.78;5033034;27;98752;-63
2023/05/30 01:02:02;;;;;;;10.75;2.40;;;;;;;18.19;39.05;101904.34;5022399;27;98688;-62
2023/05/30 01:04:29;;;;;;;6.70;2.28;;;;;;;18.00;39.25;101900.81;5026154;27;98644;-63
2023/05/30 01:06:57;;;;;;;5.93;2.25;;;;;;;18.09;39.09;101905.75;5035185;27;99193;-62
2023/05/30 01:09:23;;;;;;;5.97;1.48;;;;;;;18.03;39.00;101907.84;5035261;27;99156;-63
2023/05/30 01:11:59;;;;;;;5.57;2.15;;;;;;;18.18;38.62;101904.44;5028930;27;98696;-63
2023/05/30 01:14:32;;;;;;;6.63;2.65;;;;;;;18.15;38.01;101909.91;5030188;27;98938;-62
2023/05/30 01:17:03;;;;;;;7.95;2.20;;;;;;;18.07;38.90;101912.09;5033953;27;99127;-62
2023/05/30 01:19:48;;;;;;;4.22;1.88;;;;;;;18.07;39.16;101912.09;5031854;27;98881;-62
2023/05/30 01:22:32;;;;;;;8.23;2.15;;;;;;;18.22;37.76;101906.00;5030421;27;97095;-62
2023/05/30 01:25:22;;;;;;;8.98;2.40;;;;;;;18.15;38.81;101905.44;5032708;27;96728;-64
2023/05/30 01:28:06;;;;;;;6.55;1.98;;;;;;;18.20;38.01;101906.06;5030529;27;98850;-62
2023/05/30 01:30:34;;;;;;;11.70;2.28;;;;;;;18.08;38.10;101904.00;5031788;27;99496;-61
2023/05/30 01:33:02;;;;;;;10.93;2.10;;;;;;;18.17;38.07;101911.59;5033962;27;96783;-63
2023/05/30 01:35:28;;;;;;;6.47;2.03;;;;;;;18.57;37.13;101915.88;5031266;27;96863;-63
2023/05/30 01:37:55;;;;;;;8.38;2.20;;;;;;;18.33;37.36;101912.56;5030361;27;98945;-62
2023/05/30 01:40:24;;;;;;;6.45;2.10;;;;;;;18.55;36.65;101912.41;5030550;27;101529;-64
2023/05/30 01:42:57;;;;;;;11.60;1.90;;;;;;;18.63;36.75;101914.69;5030941;27;96740;-62
2023/05/30 01:45:31;;;;;;;7.63;1.92;;;;;;;18.63;36.50;101918.25;5033341;27;96713;-63
2023/05/30 01:48:01;;;;;;;7.25;2.00;;;;;;;18.50;37.20;101922.44;5027859;27;99219;-62
2023/05/30 01:50:37;;;;;;;4.90;1.77;;;;;;;18.51;37.00;101921.47;5030310;27;97752;-62
2023/05/30 01:53:08;;;;;;;9.63;2.50;;;;;;;18.29;37.60;101912.78;5031848;27;97611;-61
2023/05/30 01:55:36;;;;;;;6.03;2.30;;;;;;;18.10;38.11;101919.97;5032272;27;96944;-63
2023/05/30 01:58:04;;;;;;;8.32;2.00;;;;;;;18.03;38.34;101913.19;5034089;27;97791;-61
2023/05/30 02:00:33;;;;;;;10.05;1.98;;;;;;;18.17;38.99;101916.94;5028416;27;99116;-61
2023/05/30 02:02:59;;;;;;;6.80;2.28;;;;;;;17.81;40.21;101916.88;5035833;27;97151;-61
2023/05/30 02:05:25;;;;;;;7.45;1.98;;;;;;;18.15;40.14;101920.63;5030894;27;96876;-62
2023/05/30 02:07:52;;;;;;;13.65;2.63;;;;;;;18.03;40.34;101926.56;5033047;27;98924;-62
2023/05/30 02:10:19;;;;;;;8.80;2.60;;;;;;;18.01;40.73;101915.94;5036020;27;98883;-62
2023/05/30 02:12:45;;;;;;;6.85;1.98;;;;;;;17.91;41.20;101918.19;5029975;27;97160;-62
2023/05/30 02:15:12;;;;;;;5.35;1.75;;;;;;;17.83;41.37;101923.03;5037091;27;96984;-62
2023/05/30 02:17:39;;;;;;;9.07;2.13;;;;;;;17.60;42.16;101920.50;5027751;27;99100;-61
2023/05/30 02:20:08;;;;;;;13.50;2.47;;;;;;;17.60;42.24;101922.31;5029052;27;98842;-63
2023/05/30 02:22:34;;;;;;;5.60;1.90;;;;;;;17.29;42.97;101926.38;5033306;27;97793;-62
2023/05/30 02:25:01;;;;;;;8.07;2.20;;;;;;;17.38;42.59;101925.13;5038968;27;97251;-62
2023/05/30 02:27:28;;;;;;;8.60;1.95;;;;;;;17.21;42.74;101925.00;5034333;27;99123;-62
2023/05/30 02:29:54;;;;;;;9.82;2.13;;;;;;;17.25;43.07;101923.94;5034645;27;98817;-62
2023/05/30 02:32:21;;;;;;;6.65;2.50;;;;;;;17.30;42.70;101917.44;5030001;27;96876;-62
2023/05/30 02:34:48;;;;;;;8.57;2.38;;;;;;;17.29;42.47;101923.72;5037697;27;97003;-61
2023/05/30 02:37:14;;;;;;;8.80;2.08;;;;;;;17.27;43.04;101920.25;5037601;27;98280;-62
2023/05/30 02:39:41;;;;;;;6.70;2.15;;;;;;;17.24;43.43;101920.41;5032002;27;98956;-62
2023/05/30 02:42:08;;;;;;;7.57;2.13;;;;;;;17.39;43.07;101924.19;5036959;27;96865;-63
2023/05/30 02:44:34;;;;;;;5.80;2.15;;;;;;;17.14;44.05;101914.56;5028685;27;97850;-62
2023/05/30 02:47:00;;;;;;;5.53;2.08;;;;;;;17.18;43.90;101922.47;5036463;27;97841;-62
2023/05/30 02:49:27;;;;;;;9.35;2.38;;;;;;;17.08;44.23;101925.53;5031232;27;99076;-62
2023/05/30 02:51:55;;;;;;;9.43;2.30;;;;;;;17.03;44.01;101929.34;5030684;27;96827;-62
2023/05/30 02:54:23;;;;;;;9.07;2.28;;;;;;;17.08;44.09;101930.88;5033731;27;97788;-62
2023/05/30 02:56:49;;;;;;;8.90;2.17;;;;;;;17.03;43.75;101922.22;5032178;27;98887;-62
2023/05/30 02:59:16;;;;;;;14.07;4.82;;;;;;;16.93;44.23;101926.22;5037225;27;98885;-62
2023/05/30 03:01:42;;;;;;;9.10;2.38;;;;;;;16.93;44.68;101926.22;5045593;27;97180;-62
2023/05/30 03:04:08;;;;;;;7.72;2.63;;;;;;;16.82;44.89;101927.59;5035885;27;97167;-62
2023/05/30 03:06:37;;;;;;;6.85;2.20;;;;;;;16.70;45.09;101921.84;5037270;27;99050;-62
2023/05/30 03:09:05;;;;;;;15.38;2.92;;;;;;;16.73;45.19;101927.06;5039975;27;99268;-63
2023/05/30 03:11:31;;;;;;;7.03;2.50;;;;;;;16.70;45.26;101931.66;5033423;27;97611;-62
2023/05/30 03:13:57;;;;;;;7.93;2.55;;;;;;;16.82;45.15;101944.47;5036063;27;96922;-63
2023/05/30 03:16:24;;;;;;;5.93;2.53;;;;;;;16.83;45.15;101937.34;5029788;27;99134;-62
2023/05/30 03:18:50;;;;;;;10.05;2.58;;;;;;;16.79;45.48;101941.97;5031988;27;98953;-62
2023/05/30 03:21:17;;;;;;;7.03;2.35;;;;;;;16.57;45.98;101943.75;5029734;27;98088;-62
2023/05/30 03:23:43;;;;;;;9.80;2.33;;;;;;;16.86;45.38;101945.25;5031589;27;97691;-62
2023/05/30 03:26:11;;;;;;;7.20;2.92;;;;;;;16.87;44.99;101947.81;5033543;27;99178;-62
2023/05/30 03:28:37;;;;;;;6.18;2.15;;;;;;;16.83;45.22;101953.34;5036330;27;99239;-63
2023/05/30 03:31:04;;;;;;;5.63;2.05;;;;;;;16.69;45.74;101943.25;5036142;27;96762;-62
2023/05/30 03:33:30;;;;;;;10.07;2.30;;;;;;;16.91;45.58;101960.13;5037429;27;96838;-62
2023/05/30 03:35:57;;;;;;;8.13;2.50;;;;;;;16.98;45.03;101953.59;5040551;27;98951;-63
2023/05/30 03:38:23;;;;;;;10.23;2.17;;;;;;;17.11;44.71;101953.91;5041372;27;101620;-61
2023/05/30 03:40:49;;;;;;;8.02;2.10;;;;;;;16.91;45.51;101957.44;5036870;27;97150;-62
2023/05/30 03:43:17;;;;;;;7.35;2.55;;;;;;;16.83;45.89;101954.22;5034599;27;98255;-63
2023/05/30 03:45:44;;;;;;;7.13;2.30;;;;;;;17.15;44.94;101955.50;5035629;27;99333;-61
2023/05/30 03:48:10;;;;;;;11.23;2.78;;;;;;;17.06;43.50;101955.94;5039622;27;98864;-63
2023/05/30 03:50:37;;;;;;;4.18;1.70;;;;;;;17.30;42.61;101964.66;5036115;27;96928;-61
2023/05/30 03:53:03;;;;;;;7.47;2.17;;;;;;;17.21;42.66;101967.72;5037694;27;97084;-63
2023/05/30 03:55:29;;;;;;;6.78;2.20;;;;;;;17.34;41.84;101968.91;5036114;27;99105;-62
2023/05/30 03:57:56;;;;;;;4.50;1.80;;;;;;;17.36;41.88;101967.94;5033063;27;98760;-62
2023/05/30 04:00:23;;;;;;;7.47;2.00;;;;;;;17.49;41.86;101979.81;5036429;27;96728;-62
2023/05/30 04:02:50;;;;;;;9.60;1.85;;;;;;;17.62;40.86;101973.94;5035549;27;96900;-62
2023/05/30 04:05:17;;;;;;;10.88;2.63;;;;;;;17.97;40.01;101975.00;5034886;27;98959;-62
2023/05/30 04:07:44;;;;;;;8.63;2.00;;;;;;;17.94;39.73;101970.66;5030014;27;98879;-62
2023/05/30 04:10:11;;;;;;;7.20;2.13;;;;;;;17.86;39.76;101978.16;5035365;27;97669;-62
2023/05/30 04:12:37;;;;;;;7.32;2.13;;;;;;;17.92;39.61;101978.72;5033129;27;98312;-62
2023/05/30 04:15:04;;;;;;;9.15;2.22;;;;;;;17.89;39.62;101976.22;5032493;27;98969;-63
2023/05/30 04:17:32;;;;;;;8.00;2.10;;;;;;;17.84;39.75;101974.69;5044342;27;98849;-62
2023/05/30 04:19:58;;;;;;;10.40;2.10;;;;;;;17.80;40.42;101983.78;5038352;27;97739;-62
2023/05/30 04:22:25;;;;;;;9.93;2.80;;;;;;;17.77;40.66;101984.81;5039424;27;96931;-62
2023/05/30 04:24:51;;;;;;;12.40;2.47;;;;;;;18.06;40.04;101985.25;5029512;27;99011;-63
2023/05/30 04:27:17;;;;;;;8.00;1.95;;;;;;;18.08;39.50;101978.88;5034886;27;98844;-62
2023/05/30 04:29:46;;;;;;;5.40;2.03;;;;;;;18.30;39.12;101984.97;5031977;27;97188;-65
2023/05/30 04:32:12;;;;;;;11.07;2.50;;;;;;;18.21;39.10;101985.41;5036571;27;97012;-65
2023/05/30 04:34:41;;;;;;;10.52;2.38;;;;;;;18.12;39.07;101988.50;5037901;27;99141;-66
2023/05/30 04:37:07;;;;;;;9.70;2.03;;;;;;;18.12;38.87;101990.31;5038559;27;99361;-65
2023/05/30 04:39:34;;;;;;;9.40;2.15;;;;;;;18.37;38.40;101993.56;5037559;27;96929;-65
2023/05/30 04:42:00;;;;;;;7.60;2.55;;;;;;;18.48;38.45;101987.69;5032718;27;97221;-65
2023/05/30 04:44:27;;;;;;;5.20;2.08;;;;;;;18.53;38.06;101994.53;5035215;27;98949;-65
2023/05/30 04:46:54;;;;;;;5.45;2.33;;;;;;;18.38;37.67;101991.75;5033376;27;98821;-65
2023/05/30 04:49:21;;;;;;;7.05;2.25;;;;;;;18.57;37.45;101987.28;5034376;27;96918;-66
2023/05/30 04:51:48;;;;;;;9.15;2.50;;;;;;;19.05;36.76;101994.63;5034480;27;96807;-64
2023/05/30 04:54:15;;;;;;;8.93;2.30;;;;;;;19.50;35.39;101997.63;5033140;27;99162;-65
2023/05/30 04:56:41;;;;;;;6.22;2.03;;;;;;;19.87;34.75;101999.22;5034921;27;99275;-65
2023/05/30 04:59:08;;;;;;;7.60;1.83;;;;;;;20.34;33.91;102003.81;5030504;27;97633;-64
2023/05/30 05:01:35;;;;;;;6.32;2.10;;;;;;;21.94;31.83;101989.66;5032261;27;96843;-66
2023/05/30 05:04:02;;;;;;;9.18;2.72;;;;;;;22.97;28.97;101993.66;5037775;27;98615;-65
2023/05/30 05:06:28;;;;;;;9.85;2.58;;;;;;;23.09;28.89;101994.69;5027057;27;99057;-65
2023/05/30 05:08:56;;;;;;;8.02;2.60;;;;;;;22.62;29.61;101990.63;5038072;27;96801;-65
2023/05/30 05:11:22;;;;;;;6.75;2.33;;;;;;;23.56;28.69;102006.75;5034341;27;97318;-65
2023/05/30 05:13:49;;;;;;;7.38;2.25;;;;;;;24.38;27.26;102000.81;5029489;27;100919;-65
2023/05/30 05:16:15;;;;;;;8.80;2.58;;;;;;;24.49;27.23;102003.56;5030930;27;99210;-65
2023/05/30 05:18:42;;;;;;;6.63;2.60;;;;;;;23.87;27.35;102003.59;5031613;27;97687;-66
2023/05/30 05:21:08;;;;;;;10.30;3.20;;;;;;;22.96;28.82;101999.19;5029818;27;98061;-65
2023/05/30 05:23:35;;;;;;;8.93;4.03;;;;;;;22.26;30.03;102009.16;5034252;27;99175;-66
2023/05/30 05:26:02;;;;;;;15.82;4.95;;;;;;;21.97;30.63;102010.19;5032508;27;99090;-66
2023/05/30 05:28:29;;;;;;;16.63;4.90;;;;;;;21.58;31.29;102006.31;5030664;27;97663;-65
2023/05/30 05:30:56;;;;;;;22.08;5.95;;;;;;;21.08;32.14;102010.19;5030726;27;96767;-65
2023/05/30 05:33:22;;;;;;;10.88;4.28;;;;;;;20.49;33.04;102016.34;5029327;27;99486;-66
2023/05/30 05:35:49;;;;;;;13.40;3.90;;;;;;;20.89;33.16;102014.91;5030536;27;99117;-66
2023/05/30 05:38:16;;;;;;;11.90;3.90;;;;;;;20.65;33.35;102016.34;5027070;27;97027;-65
2023/05/30 05:40:43;;;;;;;10.90;3.33;;;;;;;20.41;34.23;102017.75;5036153;27;97052;-65
2023/05/30 05:43:11;;;;;;;13.73;2.40;;;;;;;20.03;34.62;102019.84;5039725;27;99237;-66
2023/05/30 05:45:37;;;;;;;13.60;3.00;;;;;;;20.58;33.96;102013.16;5027108;27;98206;-66
2023/05/30 05:48:04;;;;;;;12.80;2.72;;;;;;;21.09;33.08;102008.38;5030165;27;96956;-65
2023/05/30 05:50:30;;;;;;;12.77;4.00;;;;;;;21.40;32.50;102012.78;5032148;27;96824;-65
2023/05/30 05:52:57;;;;;;;16.05;3.80;;;;;;;21.27;32.38;102014.47;5033912;27;99296;-66
2023/05/30 05:55:23;;;;;;;10.80;3.00;;;;;;;21.12;32.99;102010.88;5032279;27;99113;-65
2023/05/30 05:57:51;;;;;;;9.25;2.92;;;;;;;21.36;32.45;102014.81;5030728;27;98033;-65
2023/05/30 06:00:20;;;;;;;12.80;3.10;;;;;;;21.55;32.53;102014.53;5027852;27;96939;-65
2023/05/30 06:02:46;;;;;;;6.53;2.60;;;;;;;21.42;32.31;102019.81;5026418;27;99441;-64
2023/05/30 06:05:12;;;;;;;11.20;3.08;;;;;;;21.22;32.83;102017.47;5028026;27;98358;-65
2023/05/30 06:07:39;;;;;;;8.00;2.40;;;;;;;20.87;33.27;102016.81;5030803;27;97780;-66
2023/05/30 06:10:07;;;;;;;10.68;2.33;;;;;;;20.68;33.73;102017.03;5026874;27;98287;-66
2023/05/30 06:12:33;;;;;;;7.50;1.98;;;;;;;20.52;33.98;102023.38;5029738;27;99060;-65
2023/05/30 06:15:00;;;;;;;11.48;2.85;;;;;;;20.98;33.54;102026.94;5025661;27;98998;-65
2023/05/30 06:17:28;;;;;;;12.02;2.53;;;;;;;21.33;32.88;102025.72;5029365;27;98172;-65
2023/05/30 06:19:55;;;;;;;6.63;2.22;;;;;;;21.14;33.16;102024.22;5031395;27;96934;-65
2023/05/30 06:22:21;;;;;;;12.52;2.90;;;;;;;21.73;32.49;102024.16;5030585;27;99360;-65
2023/05/30 06:24:48;;;;;;;7.18;2.20;;;;;;;21.57;32.25;102022.53;5029191;27;98845;-65
2023/05/30 06:27:15;;;;;;;7.68;2.33;;;;;;;21.86;32.05;102030.50;5033418;27;96882;-65
2023/05/30 06:29:41;;;;;;;9.85;2.00;;;;;;;21.84;32.12;102021.69;5032121;27;97820;-64
2023/05/30 06:32:09;;;;;;;9.43;2.47;;;;;;;22.08;31.88;102026.50;5033384;27;97959;-65
2023/05/30 06:34:37;;;;;;;11.48;2.50;;;;;;;22.31;31.21;102025.91;5030733;27;98863;-68
2023/05/30 06:37:03;;;;;;;15.88;2.88;;;;;;;22.38;31.10;102019.19;5040505;27;96799;-67
2023/05/30 06:39:30;;;;;;;7.47;2.38;;;;;;;23.23;30.08;102021.56;5030333;27;97030;-67
2023/05/30 06:41:56;;;;;;;10.23;2.60;;;;;;;24.14;29.03;102020.50;5025737;27;99311;-67
2023/05/30 06:44:23;;;;;;;7.50;2.47;;;;;;;24.09;28.51;102028.06;5025130;27;98991;-66
2023/05/30 06:46:49;;;;;;;10.30;2.78;;;;;;;24.33;28.22;102025.47;5032927;27;97154;-66
2023/05/30 06:49:16;;;;;;;6.63;2.10;;;;;;;24.49;27.85;102031.44;5032745;27;97095;-65
2023/05/30 06:51:43;;;;;;;7.70;2.53;;;;;;;24.71;26.98;102036.13;5034141;27;99007;-66
2023/05/30 06:54:10;;;;;;;13.30;2.83;;;;;;;24.26;28.25;102032.28;5028340;27;99568;-66
2023/05/30 06:56:36;;;;;;;12.23;2.63;;;;;;;25.10;27.29;102035.00;5023921;27;98042;-66
2023/05/30 06:59:03;;;;;;;7.55;2.00;;;;;;;24.97;27.36;102034.22;5028818;27;97078;-66
2023/05/30 07:01:29;;;;;;;6.05;2.22;;;;;;;24.82;26.82;102040.72;5035686;27;99015;-66
2023/05/30 07:03:56;;;;;;;13.30;2.25;;;;;;;24.52;27.41;102038.47;5018652;27;100497;-66
2023/05/30 07:06:22;;;;;;;6.55;1.92;;;;;;;23.77;28.48;102041.16;5029512;27;97303;-66
2023/05/30 07:08:50;;;;;;;7.00;1.98;;;;;;;23.69;28.61;102040.84;5033000;27;97916;-65
2023/05/30 07:11:16;;;;;;;8.35;2.15;;;;;;;24.05;28.03;102040.06;5027863;27;99222;-66
2023/05/30 07:13:43;;;;;;;10.23;2.45;;;;;;;24.26;27.57;102045.78;5031267;27;99342;-66
2023/05/30 07:16:09;;;;;;;9.25;1.85;;;;;;;23.61;28.58;102039.66;5028890;27;98504;-66
2023/05/30 07:18:36;;;;;;;7.53;1.73;;;;;;;23.97;27.55;102045.13;5031168;27;96929;-66
2023/05/30 07:21:02;;;;;;;7.35;2.13;;;;;;;23.33;28.37;102038.84;5035169;27;98972;-67
2023/05/30 07:23:29;;;;;;;7.10;2.17;;;;;;;23.63;28.50;102043.13;5038264;27;98765;-68
2023/05/30 07:25:56;;;;;;;9.43;1.83;;;;;;;23.75;27.84;102045.81;5032022;27;97409;-66
2023/05/30 07:28:23;;;;;;;9.85;2.47;;;;;;;23.43;27.75;102041.78;5032821;27;98713;-66
2023/05/30 07:30:49;;;;;;;6.55;2.00;;;;;;;23.70;28.14;102047.94;5025563;27;97768;-67
2023/05/30 07:33:16;;;;;;;10.20;2.15;;;;;;;23.83;27.83;102047.94;5026139;27;98972;-67
2023/05/30 07:35:42;;;;;;;6.13;1.88;;;;;;;23.83;26.94;102047.94;5029263;27;98086;-65
2023/05/30 07:38:09;;;;;;;9.93;2.28;;;;;;;23.73;27.42;102052.28;5029723;27;98970;-66
2023/05/30 07:40:35;;;;;;;8.10;1.95;;;;;;;22.91;28.83;102047.13;5030151;27;99260;-65
2023/05/30 07:43:03;;;;;;;9.77;3.20;;;;;;;23.62;28.07;102052.19;5024171;27;101158;-66
2023/05/30 07:45:30;;;;;;;7.22;2.00;;;;;;;23.99;27.58;102053.13;5030995;27;98838;-66
2023/05/30 07:47:56;;;;;;;9.45;2.20;;;;;;;24.01;27.16;102052.06;5026590;27;97854;-67
2023/05/30 07:50:23;;;;;;;9.30;1.63;;;;;;;24.17;27.15;102044.56;5016777;27;99488;-66
2023/05/30 07:52:50;;;;;;;7.95;1.95;;;;;;;24.47;26.53;102048.78;5027510;27;97844;-68
2023/05/30 07:55:16;;;;;;;6.18;1.70;;;;;;;24.30;26.59;102046.41;5029270;27;97194;-66
2023/05/30 07:57:43;;;;;;;8.48;1.75;;;;;;;24.95;26.15;102045.13;5030628;27;97332;-66
2023/05/30 08:00:12;;;;;;;6.20;2.17;;;;;;;25.17;25.08;102043.50;5029139;27;100457;-64
2023/05/30 08:02:38;;;;;;;7.32;2.20;;;;;;;25.34;24.72;102057.47;5022429;27;101720;-64
2023/05/30 08:05:05;;;;;;;5.88;1.65;;;;;;;25.35;25.40;102047.50;5035349;27;97777;-63
2023/05/30 08:07:32;;;;;;;8.23;2.55;;;;;;;24.96;25.53;102046.00;5032067;27;97282;-64
2023/05/30 08:09:58;;;;;;;8.15;1.95;;;;;;;25.05;26.02;102039.03;5023309;27;99712;-64
2023/05/30 08:12:28;;;;;;;8.45;2.22;;;;;;;25.01;25.65;102054.63;5020226;27;98916;-64
2023/05/30 08:14:56;;;;;;;8.63;2.10;;;;;;;25.67;24.60;102045.88;5023193;27;97247;-64
2023/05/30 08:17:25;;;;;;;5.47;1.58;;;;;;;25.30;24.99;102044.28;5028938;27;98635;-64
2023/05/30 08:19:52;;;;;;;6.47;1.85;;;;;;;25.78;24.09;102037.81;5027956;27;99862;-63
2023/05/30 08:22:21;;;;;;;21.02;6.20;;;;;;;25.61;24.31;102043.66;5028477;27;99928;-63
2023/05/30 08:24:49;;;;;;;9.98;2.60;;;;;;;25.85;24.44;102046.31;5024649;27;97340;-64
2023/05/30 08:27:15;;;;;;;11.45;3.13;;;;;;;25.82;24.37;102046.53;5028218;27;101101;-64
2023/05/30 08:29:42;;;;;;;8.38;2.60;;;;;;;25.27;24.08;102033.72;5031281;27;99240;-63
2023/05/30 08:32:08;;;;;;;10.48;3.03;;;;;;;25.43;24.03;102042.38;5024665;27;97726;-64
2023/05/30 08:34:36;;;;;;;8.35;2.78;;;;;;;25.39;24.15;102044.47;5024567;27;97607;-64
2023/05/30 08:37:03;;;;;;;8.63;2.92;;;;;;;25.24;24.51;102042.94;5025678;27;97018;-63
2023/05/30 08:39:29;;;;;;;7.90;2.00;;;;;;;25.26;24.13;102049.09;5022406;27;98958;-64
2023/05/30 08:41:56;;;;;;;8.88;2.50;;;;;;;25.13;24.47;102044.75;5022007;27;98073;-64
2023/05/30 08:44:22;;;;;;;8.40;2.60;;;;;;;25.31;24.46;102052.31;5028617;27;99013;-64
2023/05/30 08:46:50;;;;;;;5.72;1.92;;;;;;;25.68;24.28;102049.47;5027008;27;98868;-64
2023/05/30 08:49:21;;;;;;;7.88;2.58;;;;;;;25.75;24.28;102051.56;5025387;27;99464;-64
2023/05/30 08:51:50;;;;;;;11.27;2.22;;;;;;;25.89;24.41;102053.19;5029052;27;98727;-64
2023/05/30 08:54:18;;;;;;;6.93;2.40;;;;;;;26.00;24.00;102045.06;5023569;27;97649;-64
2023/05/30 08:56:50;;;;;;;5.68;2.65;;;;;;;26.10;24.01;102056.91;5023192;27;99582;-63
2023/05/30 08:59:19;;;;;;;13.20;2.47;;;;;;;25.77;23.92;102052.31;5025180;27;99464;-64
2023/05/30 09:01:49;;;;;;;7.50;2.58;;;;;;;25.84;23.99;102046.41;5027111;27;99110;-65
2023/05/30 09:04:15;;;;;;;4.55;1.92;;;;;;;25.34;23.95;102043.94;5024792;27;98117;-64
2023/05/30 09:06:42;;;;;;;10.05;2.20;;;;;;;25.31;24.21;102051.44;5029821;27;96850;-65
2023/05/30 09:09:31;;;;;;;7.85;2.17;;;;;;;25.13;24.08;102036.63;5026055;27;99345;-65
2023/05/30 09:11:58;;;;;;;8.57;1.73;;;;;;;25.40;23.42;102045.31;5026656;27;97771;-63
2023/05/30 09:14:25;;;;;;;7.07;1.92;;;;;;;25.37;23.84;102042.84;5024312;27;97788;-64
2023/05/30 09:16:52;;;;;;;5.53;2.00;;;;;;;25.78;23.81;102045.06;5022020;27;97383;-63
2023/05/30 09:19:19;;;;;;;8.80;2.05;;;;;;;25.31;23.52;102041.47;5023113;27;99022;-66
2023/05/30 09:21:45;;;;;;;6.65;2.08;;;;;;;25.10;23.79;102039.53;5025899;27;98824;-65
2023/05/30 09:24:13;;;;;;;6.60;1.88;;;;;;;25.28;23.87;102040.84;5026785;27;98897;-64
2023/05/30 09:26:57;;;;;;;8.90;2.30;;;;;;;25.27;24.16;102039.97;5031089;27;96821;-64
2023/05/30 09:29:24;;;;;;;7.78;2.75;;;;;;;25.29;23.78;102042.56;5026968;27;99150;-64
2023/05/30 09:31:51;;;;;;;7.05;1.98;;;;;;;25.17;24.23;102049.78;5024866;27;98877;-63
2023/05/30 09:34:18;;;;;;;6.57;2.28;;;;;;;25.21;24.19;102048.56;5031492;27;97539;-63
2023/05/30 09:36:53;;;;;;;6.88;2.00;;;;;;;25.36;24.27;102060.06;5027821;27;98965;-65
2023/05/30 09:39:21;;;;;;;9.35;2.45;;;;;;;25.52;24.00;102048.91;5022997;27;99218;-64
2023/05/30 09:41:47;;;;;;;6.90;2.22;;;;;;;25.54;24.02;102049.63;5023643;27;98984;-64
2023/05/30 09:44:14;;;;;;;9.18;3.90;;;;;;;25.52;24.32;102048.91;5023163;27;96953;-63
2023/05/30 09:46:40;;;;;;;7.82;1.98;;;;;;;25.73;24.07;102042.69;5026782;27;98590;-64
2023/05/30 09:49:11;;;;;;;9.57;2.13;;;;;;;25.31;24.61;102052.31;5016596;27;98972;-64
2023/05/30 09:51:39;;;;;;;7.13;1.85;;;;;;;24.84;24.71;102044.19;5022522;27;98862;-64
2023/05/30 09:54:06;;;;;;;9.77;2.78;;;;;;;25.28;24.70;102048.94;5024317;27;97350;-64
2023/05/30 09:56:38;;;;;;;9.10;2.78;;;;;;;25.51;24.09;102050.75;5030043;27;97937;-64
2023/05/30 09:59:07;;;;;;;11.13;2.72;;;;;;;25.84;23.91;102054.53;5024890;27;101915;-63
2023/05/30 10:01:38;;;;;;;5.65;2.15;;;;;;;26.08;22.97;102050.72;5031808;27;98408;-63
2023/05/30 10:04:15;;;;;;;8.98;1.80;;;;;;;25.91;23.18;102063.91;5031129;27;97630;-63
2023/05/30 10:06:43;;;;;;;4.80;1.83;;;;;;;25.84;23.36;102057.25;5031591;27;97285;-65
2023/05/30 10:09:11;;;;;;;9.00;2.38;;;;;;;26.01;23.10;102051.34;5032123;27;98978;-63
2023/05/30 10:11:40;;;;;;;7.13;2.85;;;;;;;25.96;22.74;102043.59;5025158;27;99641;-64
2023/05/30 10:14:06;;;;;;;6.40;1.90;;;;;;;26.05;22.74;102052.84;5031909;27;97283;-63
2023/05/30 10:16:34;;;;;;;6.82;2.17;;;;;;;26.00;23.34;102057.72;5034257;27;97075;-64
2023/05/30 10:19:03;;;;;;;5.65;1.95;;;;;;;26.07;22.57;102056.25;5027535;27;98977;-64
2023/05/30 10:21:32;;;;;;;6.25;2.08;;;;;;;26.03;22.68;102047.53;5034391;27;99380;-65
2023/05/30 10:24:00;;;;;;;6.07;1.67;;;;;;;25.73;22.74;102042.69;5029663;27;97287;-64
2023/05/30 10:26:31;;;;;;;6.40;2.13;;;;;;;25.94;23.01;102044.69;5031461;27;96946;-63
2023/05/30 10:29:03;;;;;;;10.77;1.85;;;;;;;26.22;22.53;102046.03;5031467;27;100456;-63
2023/05/30 10:31:32;;;;;;;7.97;2.00;;;;;;;25.94;22.42;102039.25;5032445;27;98963;-64
2023/05/30 10:34:01;;;;;;;6.43;1.77;;;;;;;26.02;22.84;102050.34;5022746;27;98801;-63
2023/05/30 10:36:29;;;;;;;12.27;2.20;;;;;;;25.88;22.52;102056.88;5027642;27;97629;-65
2023/05/30 10:39:06;;;;;;;4.80;1.70;;;;;;;25.87;22.34;102046.16;5024932;27;99188;-64
2023/05/30 10:41:39;;;;;;;5.70;1.90;;;;;;;25.87;22.41;102040.75;5018240;27;98997;-64
2023/05/30 10:44:14;;;;;;;11.35;2.25;;;;;;;25.84;22.87;102050.00;5022123;27;98709;-64
2023/05/30 10:46:48;;;;;;;6.93;2.08;;;;;;;25.84;22.98;102043.72;5016563;27;97982;-64
2023/05/30 10:49:20;;;;;;;5.70;1.70;;;;;;;25.96;22.60;102045.44;5025740;27;99004;-64
2023/05/30 10:52:04;;;;;;;8.90;2.00;;;;;;;26.00;22.02;102042.34;5025966;27;99067;-64
2023/05/30 10:54:33;;;;;;;6.03;2.10;;;;;;;25.98;21.66;102040.75;5028321;27;98207;-65
2023/05/30 10:57:01;;;;;;;5.22;1.58;;;;;;;26.07;21.88;102038.16;5029093;27;96939;-66
2023/05/30 10:59:28;;;;;;;3.75;1.70;;;;;;;25.95;21.79;102035.59;5026467;27;98878;-64
2023/05/30 11:02:00;;;;;;;12.45;2.17;;;;;;;25.91;21.96;102029.56;5031993;27;98792;-63
2023/05/30 11:04:32;;;;;;;6.45;1.90;;;;;;;25.88;21.97;102029.78;5027650;27;98766;-63
2023/05/30 11:06:58;;;;;;;8.38;1.60;;;;;;;25.84;21.55;102027.47;5032590;27;98644;-63
2023/05/30 11:09:26;;;;;;;6.97;2.40;;;;;;;25.64;22.32;102027.19;5023645;27;99223;-64
2023/05/30 11:11:56;;;;;;;9.07;1.77;;;;;;;25.54;21.74;102038.81;5029033;27;101552;-65
2023/05/30 11:14:25;;;;;;;4.32;1.60;;;;;;;25.52;21.83;102033.53;5029547;27;99322;-63
2023/05/30 11:17:00;;;;;;;4.13;2.10;;;;;;;25.71;21.88;102028.44;5025076;27;97703;-64
2023/05/30 11:19:27;;;;;;;4.03;1.95;;;;;;;26.01;22.04;102035.09;5019451;27;99262;-64
2023/05/30 11:21:55;;;;;;;9.90;1.70;;;;;;;26.02;22.16;102039.53;5023015;27;99162;-63
2023/05/30 11:24:21;;;;;;;5.05;1.70;;;;;;;26.15;21.93;102037.56;5028547;27;96949;-63
2023/05/30 11:26:53;;;;;;;7.22;2.03;;;;;;;26.20;21.24;102041.59;5032321;27;96920;-63